createdAt,value
2019-04-06T00:01:03.379Z,34.97
2019-04-06T00:03:33.718Z,33.60
2019-04-06T00:06:03.211Z,33.77
2019-04-06T00:08:32.543Z,37.80
2019-04-06T00:11:01.934Z,35.33
2019-04-06T00:13:31.276Z,36.57
2019-04-06T00:16:04.817Z,34.13
2019-04-06T00:18:34.198Z,34.30
2019-04-06T00:21:03.539Z,33.50
2019-04-06T00:23:32.808Z,37.73
2019-04-06T00:26:02.144Z,32.27
2019-04-06T00:28:31.412Z,32.60
2019-04-06T00:31:12.488Z,28.33
2019-04-06T00:33:41.788Z,32.57
2019-04-06T00:36:11.128Z,36.70
2019-04-06T00:38:40.495Z,34.97
2019-04-06T00:41:11.296Z,35.50
2019-04-06T00:43:40.627Z,35.50
2019-04-06T00:46:09.933Z,35.97
2019-04-06T00:48:39.264Z,31.50
2019-04-06T00:51:08.619Z,33.17
2019-04-06T00:53:37.920Z,35.23
2019-04-06T00:56:07.350Z,35.27
2019-04-06T00:58:36.704Z,34.23
2019-04-06T01:01:06.341Z,35.10
2019-04-06T01:03:35.631Z,38.37
2019-04-06T01:06:04.942Z,35.47
2019-04-06T01:08:34.285Z,35.30
2019-04-06T01:11:03.601Z,31.97
2019-04-06T01:13:32.947Z,33.27
2019-04-06T01:16:02.276Z,33.63
2019-04-06T01:18:31.644Z,31.43
2019-04-06T01:21:00.955Z,35.17
2019-04-06T01:23:30.250Z,33.83
2019-04-06T01:26:07.059Z,36.33
2019-04-06T01:28:30.541Z,33.60
2019-04-06T01:31:01.730Z,37.03
2019-04-06T01:33:31.087Z,32.63
2019-04-06T01:36:00.447Z,36.20
2019-04-06T01:38:41.029Z,29.50
2019-04-06T01:41:10.308Z,23.43
2019-04-06T01:43:39.679Z,24.80
2019-04-06T01:46:08.983Z,27.40
2019-04-06T01:48:38.304Z,25.73
2019-04-06T01:51:07.587Z,24.23
2019-04-06T01:53:36.883Z,27.67
2019-04-06T01:56:06.203Z,28.23
2019-04-06T01:58:35.507Z,28.70
2019-04-06T02:01:13.679Z,26.43
2019-04-06T02:03:43.044Z,26.43
2019-04-06T02:06:12.418Z,24.10
2019-04-06T02:08:41.697Z,24.77
2019-04-06T02:11:11.009Z,25.73
2019-04-06T02:13:40.359Z,27.57
2019-04-06T02:16:09.751Z,28.97
2019-04-06T02:18:39.068Z,29.40
2019-04-06T02:21:08.331Z,28.43
2019-04-06T02:23:37.691Z,25.90
2019-04-06T02:26:07.029Z,26.17
2019-04-06T02:28:36.359Z,28.63
2019-04-06T02:31:18.068Z,27.40
2019-04-06T02:34:04.037Z,29.20
2019-04-06T02:36:58.376Z,28.87
2019-04-06T02:39:57.224Z,27.43
2019-04-06T02:42:33.964Z,26.77
2019-04-06T02:45:03.367Z,25.73
2019-04-06T02:47:32.775Z,30.47
2019-04-06T02:50:02.110Z,25.47
2019-04-06T02:52:31.483Z,24.73
2019-04-06T02:55:01.823Z,26.60
2019-04-06T02:57:31.096Z,32.27
2019-04-06T03:00:00.577Z,29.40
2019-04-06T03:02:29.977Z,30.60
2019-04-06T03:04:59.359Z,27.33
2019-04-06T03:07:28.961Z,30.37
2019-04-06T03:09:58.480Z,27.53
2019-04-06T03:12:28.208Z,29.13
2019-04-06T03:14:57.658Z,28.70
2019-04-06T03:17:28.087Z,29.20
2019-04-06T03:19:59.137Z,28.33
2019-04-06T03:22:28.613Z,27.60
2019-04-06T03:24:57.932Z,28.53
2019-04-06T03:27:27.259Z,26.43
2019-04-06T03:29:58.889Z,25.00
2019-04-06T03:32:27.952Z,25.33
2019-04-06T03:34:57.378Z,29.73
2019-04-06T03:37:29.709Z,30.10
2019-04-06T03:40:00.501Z,26.33
2019-04-06T03:42:29.771Z,27.93
2019-04-06T03:44:59.126Z,27.60
2019-04-06T03:47:29.576Z,29.17
2019-04-06T03:49:58.956Z,28.03
2019-04-06T03:52:28.499Z,27.67
2019-04-06T03:54:59.604Z,30.03
2019-04-06T03:57:28.903Z,24.53
2019-04-06T03:59:58.226Z,27.30
2019-04-06T04:02:27.536Z,29.03
2019-04-06T04:04:56.896Z,27.50
2019-04-06T04:07:26.161Z,28.20
2019-04-06T04:09:55.583Z,27.17
2019-04-06T04:12:24.860Z,29.73
2019-04-06T04:14:54.178Z,28.57
2019-04-06T04:17:23.640Z,29.00
2019-04-06T04:19:53.295Z,26.50
2019-04-06T04:22:24.081Z,27.40
2019-04-06T04:24:53.379Z,27.53
2019-04-06T04:27:29.341Z,26.00
2019-04-06T04:29:53.825Z,27.60
2019-04-06T04:32:23.129Z,25.90
2019-04-06T04:34:52.423Z,28.23
2019-04-06T04:37:21.749Z,29.17
2019-04-06T04:39:52.905Z,31.73
2019-04-06T04:42:22.400Z,30.17
2019-04-06T04:44:51.744Z,27.57
2019-04-06T04:47:21.038Z,25.67
2019-04-06T04:49:50.375Z,28.37
2019-04-06T04:52:19.677Z,26.23
2019-04-06T04:54:49.005Z,32.23
2019-04-06T04:57:18.296Z,29.47
2019-04-06T04:59:47.619Z,28.40
2019-04-06T05:02:17.066Z,28.80
2019-04-06T05:04:46.407Z,29.47
2019-04-06T05:07:15.678Z,28.53
2019-04-06T05:09:44.988Z,26.57
2019-04-06T05:12:14.287Z,28.97
2019-04-06T05:15:03.776Z,28.77
2019-04-06T05:17:33.083Z,29.23
2019-04-06T05:20:03.753Z,29.47
2019-04-06T05:22:33.053Z,28.43
2019-04-06T05:25:02.501Z,30.27
2019-04-06T05:27:31.865Z,30.73
2019-04-06T05:30:01.270Z,31.37
2019-04-06T05:32:30.629Z,33.83
2019-04-06T05:34:59.922Z,28.23
2019-04-06T05:37:29.289Z,30.97
2019-04-06T05:39:58.640Z,30.07
2019-04-06T05:42:27.993Z,30.40
2019-04-06T05:44:57.298Z,29.40
2019-04-06T05:47:26.663Z,31.77
2019-04-06T05:49:55.983Z,31.00
2019-04-06T05:52:25.284Z,32.30
2019-04-06T05:54:54.612Z,28.33
2019-04-06T05:57:23.880Z,26.57
2019-04-06T05:59:53.158Z,28.33
2019-04-06T06:02:22.543Z,29.00
2019-04-06T06:04:51.825Z,28.70
2019-04-06T06:07:21.466Z,29.63
2019-04-06T06:09:50.794Z,28.07
2019-04-06T06:12:20.852Z,28.40
2019-04-06T06:14:50.119Z,27.67
2019-04-06T06:17:19.450Z,30.07
2019-04-06T06:19:48.759Z,29.63
2019-04-06T06:22:18.182Z,30.77
2019-04-06T06:24:47.510Z,30.07
2019-04-06T06:27:16.781Z,29.23
2019-04-06T06:29:46.108Z,28.40
2019-04-06T06:32:15.379Z,30.57
2019-04-06T06:34:44.687Z,32.23
2019-04-06T06:37:14.001Z,27.53
2019-04-06T06:39:43.326Z,29.60
2019-04-06T06:42:12.678Z,28.23
2019-04-06T06:44:43.184Z,30.77
2019-04-06T06:47:12.500Z,29.30
2019-04-06T06:49:41.832Z,27.80
2019-04-06T06:52:11.187Z,30.50
2019-04-06T06:54:40.451Z,31.83
2019-04-06T06:57:09.997Z,28.97
2019-04-06T06:59:39.253Z,26.07
2019-04-06T07:02:08.571Z,28.00
2019-04-06T07:04:37.870Z,32.40
2019-04-06T07:07:07.243Z,29.43
2019-04-06T07:09:36.524Z,28.20
2019-04-06T07:12:06.062Z,28.97
2019-04-06T07:14:35.330Z,31.47
2019-04-06T07:17:04.628Z,27.43
2019-04-06T07:19:35.378Z,29.03
2019-04-06T07:22:04.667Z,31.70
2019-04-06T07:24:33.961Z,33.20
2019-04-06T07:27:03.234Z,32.97
2019-04-06T07:29:32.703Z,32.00
2019-04-06T07:32:03.790Z,27.07
2019-04-06T07:34:33.102Z,27.43
2019-04-06T07:37:02.411Z,26.67
2019-04-06T07:39:31.720Z,25.23
2019-04-06T07:42:01.039Z,23.40
2019-04-06T07:44:30.333Z,24.37
2019-04-06T07:46:59.641Z,24.73
2019-04-06T07:49:29.165Z,23.32
2019-04-06T07:51:59.624Z,24.35
2019-04-06T07:54:28.915Z,23.65
2019-04-06T07:56:58.212Z,26.07
2019-04-06T07:59:27.604Z,23.83
2019-04-06T08:01:57.017Z,23.25
2019-04-06T08:04:26.310Z,21.62
2019-04-06T08:06:55.803Z,25.02
2019-04-06T08:09:25.385Z,21.75
2019-04-06T08:11:56.193Z,22.30
2019-04-06T08:14:25.511Z,18.48
2019-04-06T08:16:54.825Z,17.98
2019-04-06T08:19:24.212Z,15.60
2019-04-06T08:21:53.545Z,17.45
2019-04-06T08:24:22.846Z,16.93
2019-04-06T08:26:52.319Z,16.85
2019-04-06T08:29:21.620Z,17.17
2019-04-06T08:31:52.732Z,17.12
2019-04-06T08:34:22.030Z,15.68
2019-04-06T08:36:51.331Z,14.90
2019-04-06T08:39:20.660Z,14.43
2019-04-06T08:41:50.007Z,16.85
2019-04-06T08:44:19.331Z,14.75
2019-04-06T08:46:49.718Z,15.72
2019-04-06T08:49:19.013Z,14.30
2019-04-06T08:51:48.300Z,14.28
2019-04-06T08:54:19.089Z,16.00
2019-04-06T08:56:48.507Z,15.58
2019-04-06T08:59:20.359Z,14.30
2019-04-06T09:01:50.029Z,12.30
2019-04-06T09:04:19.422Z,13.22
2019-04-06T09:06:48.729Z,13.22
2019-04-06T09:09:18.009Z,13.40
2019-04-06T09:11:47.346Z,12.13
2019-04-06T09:14:16.739Z,11.93
2019-04-06T09:16:46.092Z,11.50
2019-04-06T09:19:15.413Z,13.03
2019-04-06T09:21:44.705Z,11.40
2019-04-06T09:24:14.244Z,11.20
2019-04-06T09:26:48.006Z,12.45
2019-04-06T09:29:23.297Z,13.48
2019-04-06T09:31:48.524Z,12.70
2019-04-06T09:34:17.894Z,12.45
2019-04-06T09:36:48.413Z,11.05
2019-04-06T09:39:17.696Z,11.25
2019-04-06T09:41:48.494Z,12.80
2019-04-06T09:44:39.821Z,12.40
2019-04-06T09:47:21.433Z,12.28
2019-04-06T09:50:08.690Z,12.23
2019-04-06T09:53:06.369Z,11.15
2019-04-06T09:55:45.760Z,11.43
2019-04-06T09:58:37.161Z,10.75
2019-04-06T10:01:37.308Z,11.38
2019-04-06T10:04:09.092Z,11.18
2019-04-06T10:07:17.412Z,10.65
2019-04-06T10:10:17.600Z,10.13
2019-04-06T10:13:20.940Z,11.40
2019-04-06T10:16:05.984Z,8.67
2019-04-06T10:19:06.577Z,8.93
2019-04-06T10:21:47.434Z,10.33
2019-04-06T10:24:54.227Z,7.60
2019-04-06T10:27:40.553Z,7.20
2019-04-06T10:30:44.397Z,7.90
2019-04-06T10:33:32.651Z,7.80
2019-04-06T10:36:14.276Z,8.77
2019-04-06T10:39:01.038Z,8.17
2019-04-06T10:41:40.796Z,10.37
2019-04-06T10:44:19.450Z,10.97
2019-04-06T10:47:18.159Z,9.20
2019-04-06T10:49:53.090Z,9.70
2019-04-06T10:52:53.194Z,9.17
2019-04-06T10:55:44.157Z,9.03
2019-04-06T10:58:40.294Z,9.33
2019-04-06T11:01:31.853Z,9.20
2019-04-06T11:04:06.987Z,10.23
2019-04-06T11:06:45.631Z,9.70
2019-04-06T11:09:26.699Z,9.67
2019-04-06T11:12:11.197Z,9.97
2019-04-06T11:14:52.518Z,10.13
2019-04-06T11:17:52.930Z,9.00
2019-04-06T11:20:42.964Z,10.93
2019-04-06T11:23:29.887Z,8.50
2019-04-06T11:26:33.450Z,8.97
2019-04-06T11:29:31.079Z,8.30
2019-04-06T11:32:14.489Z,11.00
2019-04-06T11:35:20.985Z,13.97
2019-04-06T11:38:21.326Z,11.23
2019-04-06T11:41:08.843Z,10.80
2019-04-06T11:43:52.648Z,9.00
2019-04-06T11:46:46.965Z,8.30
2019-04-06T11:49:37.264Z,9.37
2019-04-06T11:52:30.785Z,9.37
2019-04-06T11:55:20.584Z,9.60
2019-04-06T11:58:20.811Z,9.77
2019-04-06T12:01:15.828Z,9.37
2019-04-06T12:04:04.860Z,11.97
2019-04-06T12:07:00.962Z,10.43
2019-04-06T12:09:47.353Z,10.33
2019-04-06T12:12:42.877Z,9.77
2019-04-06T12:15:21.864Z,9.73
2019-04-06T12:18:06.849Z,9.37
2019-04-06T12:20:55.508Z,10.83
2019-04-06T12:23:51.829Z,11.43
2019-04-06T12:26:40.006Z,8.53
2019-04-06T12:29:27.199Z,8.37
2019-04-06T12:32:15.485Z,7.97
2019-04-06T12:35:12.350Z,8.07
2019-04-06T12:38:03.124Z,8.03
2019-04-06T12:40:51.181Z,8.63
2019-04-06T12:43:42.753Z,8.13
2019-04-06T12:46:33.486Z,11.13
2019-04-06T12:49:15.463Z,10.63
2019-04-06T12:52:06.659Z,9.93
2019-04-06T12:54:49.997Z,10.23
2019-04-06T12:57:38.230Z,11.70
2019-04-06T13:00:27.088Z,8.10
2019-04-06T13:03:24.651Z,10.00
2019-04-06T13:06:03.482Z,9.10
2019-04-06T13:08:54.742Z,11.13
2019-04-06T13:11:42.156Z,9.90
2019-04-06T13:14:30.736Z,9.07
2019-04-06T13:17:17.937Z,8.60
2019-04-06T13:20:15.146Z,8.47
2019-04-06T13:22:57.362Z,8.20
2019-04-06T13:25:40.123Z,7.93
2019-04-06T13:28:40.771Z,7.30
2019-04-06T13:31:41.098Z,7.37
2019-04-06T13:34:18.957Z,11.70
2019-04-06T13:37:01.580Z,7.17
2019-04-06T13:39:52.859Z,8.63
2019-04-06T13:42:46.233Z,7.60
2019-04-06T13:45:29.305Z,6.37
2019-04-06T13:48:23.378Z,7.10
2019-04-06T13:51:24.207Z,6.50
2019-04-06T13:54:01.536Z,8.23
2019-04-06T13:56:58.909Z,6.80
2019-04-06T13:59:39.078Z,6.67
2019-04-06T14:02:33.691Z,11.80
2019-04-06T14:05:24.270Z,7.47
2019-04-06T14:08:12.504Z,9.97
2019-04-06T14:10:59.694Z,7.63
2019-04-06T14:13:37.765Z,6.93
2019-04-06T14:16:21.885Z,6.03
2019-04-06T14:19:10.495Z,6.93
2019-04-06T14:22:14.098Z,7.50
2019-04-06T14:25:03.740Z,11.50
2019-04-06T14:27:40.018Z,8.87
2019-04-06T14:30:15.656Z,8.60
2019-04-06T14:33:04.133Z,7.87
2019-04-06T14:36:09.461Z,7.40
2019-04-06T14:38:50.985Z,6.97
2019-04-06T14:41:38.088Z,7.60
2019-04-06T14:44:19.658Z,7.37
2019-04-06T14:47:06.259Z,7.60
2019-04-06T14:50:06.484Z,7.70
2019-04-06T14:52:52.843Z,7.77
2019-04-06T14:55:43.516Z,7.77
2019-04-06T14:58:36.188Z,7.47
2019-04-06T15:01:12.254Z,7.30
2019-04-06T15:04:06.625Z,12.87
2019-04-06T15:07:13.588Z,7.27
2019-04-06T15:10:00.283Z,6.60
2019-04-06T15:13:03.689Z,7.57
2019-04-06T15:15:53.305Z,6.07
2019-04-06T15:18:41.936Z,6.43
2019-04-06T15:21:21.059Z,8.57
2019-04-06T15:24:12.637Z,6.20
2019-04-06T15:27:13.439Z,7.27
2019-04-06T15:29:48.865Z,7.40
2019-04-06T15:32:33.618Z,8.73
2019-04-06T15:35:21.854Z,10.20
2019-04-06T15:38:13.270Z,8.67
2019-04-06T15:40:57.828Z,7.53
2019-04-06T15:43:45.926Z,7.83
2019-04-06T15:46:43.729Z,8.67
2019-04-06T15:49:35.167Z,11.23
2019-04-06T15:52:35.660Z,9.27
2019-04-06T15:55:25.934Z,8.07
2019-04-06T15:58:07.709Z,8.13
2019-04-06T16:01:02.827Z,8.60
2019-04-06T16:03:54.406Z,10.93
2019-04-06T16:06:34.735Z,8.60
2019-04-06T16:09:24.025Z,8.47
2019-04-06T16:12:06.747Z,9.67
2019-04-06T16:14:46.175Z,8.27
2019-04-06T16:17:27.831Z,11.60
2019-04-06T16:20:16.191Z,9.03
2019-04-06T16:23:24.254Z,9.03
2019-04-06T16:26:24.783Z,7.63
2019-04-06T16:29:14.006Z,15.57
2019-04-06T16:32:15.050Z,9.37
2019-04-06T16:35:09.491Z,8.83
2019-04-06T16:38:02.900Z,8.53
2019-04-06T16:40:51.755Z,7.80
2019-04-06T16:43:45.990Z,9.77
2019-04-06T16:46:39.049Z,8.27
2019-04-06T16:49:27.087Z,9.17
2019-04-06T16:52:27.179Z,6.97
2019-04-06T16:55:07.810Z,7.23
2019-04-06T16:57:47.267Z,8.77
2019-04-06T17:00:36.890Z,18.03
2019-04-06T17:03:15.326Z,7.83
2019-04-06T17:06:18.800Z,9.67
2019-04-06T17:09:09.873Z,13.07
2019-04-06T17:11:59.274Z,15.90
2019-04-06T17:14:46.253Z,11.60
2019-04-06T17:17:41.051Z,8.47
2019-04-06T17:20:28.575Z,9.90
2019-04-06T17:23:27.293Z,8.53
2019-04-06T17:26:04.779Z,10.13
2019-04-06T17:28:51.912Z,11.80
2019-04-06T17:31:44.171Z,9.47
2019-04-06T17:34:34.063Z,14.47
2019-04-06T17:37:16.063Z,12.73
2019-04-06T17:40:07.547Z,8.40
2019-04-06T17:42:55.910Z,7.00
2019-04-06T17:45:43.823Z,8.37
2019-04-06T17:48:31.669Z,9.67
2019-04-06T17:51:14.575Z,8.87
2019-04-06T17:54:11.861Z,11.07
2019-04-06T17:56:52.540Z,17.93
2019-04-06T17:59:51.485Z,11.33
2019-04-06T18:02:47.892Z,10.00
2019-04-06T18:05:29.365Z,8.33
2019-04-06T18:08:21.247Z,8.13
2019-04-06T18:11:08.767Z,8.07
2019-04-06T18:13:50.969Z,7.83
2019-04-06T18:16:23.339Z,8.60
2019-04-06T18:18:52.627Z,10.50
2019-04-06T18:21:22.261Z,9.20
2019-04-06T18:23:51.711Z,8.13
2019-04-06T18:26:20.995Z,6.63
2019-04-06T18:28:50.840Z,7.03
2019-04-06T18:31:54.287Z,8.27
2019-04-06T18:34:23.891Z,12.40
2019-04-06T18:36:59.536Z,7.10
2019-04-06T18:39:31.269Z,7.43
2019-04-06T18:42:00.517Z,8.17
2019-04-06T18:44:29.824Z,6.67
2019-04-06T18:47:00.825Z,6.90
2019-04-06T18:49:30.079Z,11.27
2019-04-06T18:51:59.408Z,7.57
2019-04-06T18:54:29.046Z,9.13
2019-04-06T18:56:58.370Z,7.97
2019-04-06T18:59:27.674Z,6.67
2019-04-06T19:01:57.332Z,7.43
2019-04-06T19:04:27.381Z,7.70
2019-04-06T19:06:56.818Z,9.57
2019-04-06T19:09:26.105Z,7.43
2019-04-06T19:11:57.031Z,8.57
2019-04-06T19:14:26.932Z,10.57
2019-04-06T19:16:56.275Z,8.20
2019-04-06T19:19:26.123Z,8.23
2019-04-06T19:21:55.632Z,6.93
2019-04-06T19:24:25.018Z,7.23
2019-04-06T19:26:54.315Z,9.43
2019-04-06T19:29:23.962Z,7.20
2019-04-06T19:31:53.308Z,7.13
2019-04-06T19:34:22.612Z,8.07
2019-04-06T19:36:52.173Z,6.90
2019-04-06T19:39:21.603Z,6.77
2019-04-06T19:41:51.986Z,8.13
2019-04-06T19:44:21.660Z,6.77
2019-04-06T19:46:51.307Z,11.73
2019-04-06T19:49:20.604Z,8.63
2019-04-06T19:51:49.899Z,6.23
2019-04-06T19:54:19.236Z,7.13
2019-04-06T19:56:48.640Z,6.60
2019-04-06T19:59:17.902Z,7.73
2019-04-06T20:01:47.252Z,9.50
2019-04-06T20:04:16.833Z,8.30
2019-04-06T20:06:46.878Z,7.27
2019-04-06T20:09:16.212Z,7.97
2019-04-06T20:11:45.602Z,7.33
2019-04-06T20:14:14.862Z,8.00
2019-04-06T20:16:45.142Z,6.53
2019-04-06T20:19:14.417Z,5.53
2019-04-06T20:21:43.726Z,5.70
2019-04-06T20:24:12.987Z,5.50
2019-04-06T20:26:42.780Z,5.33
2019-04-06T20:29:12.654Z,4.73
2019-04-06T20:31:42.089Z,4.50
2019-04-06T20:34:11.876Z,5.07
2019-04-06T20:36:41.156Z,5.03
2019-04-06T20:39:11.289Z,5.50
2019-04-06T20:41:40.628Z,6.07
2019-04-06T20:44:09.917Z,5.77
2019-04-06T20:46:39.785Z,5.77
2019-04-06T20:49:09.290Z,5.57
2019-04-06T20:51:38.988Z,5.23
2019-04-06T20:54:09.055Z,5.43
2019-04-06T20:56:38.456Z,5.17
2019-04-06T20:59:09.069Z,8.57
2019-04-06T21:01:39.836Z,5.03
2019-04-06T21:04:09.239Z,6.60
2019-04-06T21:06:39.124Z,5.20
2019-04-06T21:09:14.035Z,4.70
2019-04-06T21:11:43.452Z,5.20
2019-04-06T21:14:14.381Z,4.20
2019-04-06T21:16:43.863Z,4.30
2019-04-06T21:19:13.200Z,4.50
2019-04-06T21:21:42.742Z,4.07
2019-04-06T21:24:12.497Z,3.53
2019-04-06T21:26:43.315Z,3.57
2019-04-06T21:29:12.650Z,3.77
2019-04-06T21:32:01.627Z,3.87
2019-04-06T21:34:32.848Z,5.43
2019-04-06T21:37:02.137Z,3.20
2019-04-06T21:39:31.447Z,3.90
2019-04-06T21:42:00.789Z,3.60
2019-04-06T21:44:30.051Z,4.40
2019-04-06T21:46:59.383Z,4.33
2019-04-06T21:49:29.090Z,4.10
2019-04-06T21:51:58.701Z,3.50
2019-04-06T21:54:28.643Z,8.37
2019-04-06T21:56:58.404Z,4.90
2019-04-06T21:59:28.065Z,4.00
2019-04-06T22:01:59.469Z,4.93
2019-04-06T22:04:29.336Z,4.63
2019-04-06T22:06:58.787Z,5.93
2019-04-06T22:09:28.791Z,4.13
2019-04-06T22:11:58.532Z,4.60
2019-04-06T22:14:28.404Z,3.93
2019-04-06T22:16:58.390Z,6.00
2019-04-06T22:19:27.941Z,4.53
2019-04-06T22:21:57.304Z,4.43
2019-04-06T22:24:27.223Z,3.97
2019-04-06T22:26:57.407Z,5.87
2019-04-06T22:29:27.500Z,4.73
2019-04-06T22:31:58.473Z,4.50
2019-04-06T22:34:37.155Z,3.63
2019-04-06T22:36:59.758Z,4.83
2019-04-06T22:39:29.859Z,3.87
2019-04-06T22:41:59.355Z,3.80
2019-04-06T22:44:29.100Z,3.67
2019-04-06T22:46:58.899Z,3.57
2019-04-06T22:49:28.428Z,3.70
2019-04-06T22:51:58.453Z,3.30
2019-04-06T22:54:28.727Z,3.33
2019-04-06T22:56:58.827Z,4.93
2019-04-06T22:59:30.009Z,3.67
2019-04-06T23:01:59.800Z,4.07
2019-04-06T23:04:47.236Z,3.67
2019-04-06T23:07:13.369Z,4.40
2019-04-06T23:09:44.361Z,3.83
2019-04-06T23:12:18.037Z,4.47
2019-04-06T23:14:49.161Z,3.23
2019-04-06T23:17:18.979Z,3.93
2019-04-06T23:19:48.830Z,3.57
2019-04-06T23:22:19.617Z,2.87
2019-04-06T23:24:48.863Z,3.50
2019-04-06T23:27:18.287Z,4.43
2019-04-06T23:29:47.600Z,3.00
2019-04-06T23:32:16.988Z,5.53
2019-04-06T23:34:59.451Z,4.13
2019-04-06T23:37:20.542Z,3.87
2019-04-06T23:39:50.436Z,3.53
2019-04-06T23:42:20.521Z,5.27
2019-04-06T23:44:49.950Z,4.77
2019-04-06T23:47:19.244Z,4.13
2019-04-06T23:49:48.546Z,5.67
2019-04-06T23:52:18.311Z,5.13
2019-04-06T23:54:49.201Z,3.80
2019-04-06T23:57:18.722Z,4.77
2019-04-06T23:59:47.933Z,3.93
